sensor_id;sensor_type;location;lat;lon;timestamp;pressure;altitude;pressure_sealevel;temperature;humidity
31044;BME280;17710;52.520;13.352;2022-07-23T00:01:43;101370.03;;;23.22;48.39
31044;BME280;17710;52.520;13.352;2022-07-23T00:04:10;101362.16;;;23.30;48.28
31044;BME280;17710;52.520;13.352;2022-07-23T00:06:36;101358.31;;;23.68;47.63
31044;BME280;17710;52.520;13.352;2022-07-23T00:09:03;101351.28;;;23.76;46.98
31044;BME280;17710;52.520;13.352;2022-07-23T00:11:29;101355.09;;;23.85;47.00
31044;BME280;17710;52.520;13.352;2022-07-23T00:13:56;101357.53;;;23.99;46.63
31044;BME280;17710;52.520;13.352;2022-07-23T00:16:23;101348.16;;;24.14;46.31
31044;BME280;17710;52.520;13.352;2022-07-23T00:18:51;101357.38;;;24.12;46.16
31044;BME280;17710;52.520;13.352;2022-07-23T00:21:17;101348.78;;;24.07;45.75
31044;BME280;17710;52.520;13.352;2022-07-23T00:23:43;101354.31;;;24.05;45.92
31044;BME280;17710;52.520;13.352;2022-07-23T00:26:10;101345.25;;;24.06;45.54
31044;BME280;17710;52.520;13.352;2022-07-23T00:28:36;101343.28;;;23.97;45.79
31044;BME280;17710;52.520;13.352;2022-07-23T00:31:03;101337.88;;;23.97;45.96
31044;BME280;17710;52.520;13.352;2022-07-23T00:33:30;101345.28;;;23.95;45.66
31044;BME280;17710;52.520;13.352;2022-07-23T00:35:58;101348.84;;;23.51;46.70
31044;BME280;17710;52.520;13.352;2022-07-23T00:38:24;101335.72;;;23.35;46.99
31044;BME280;17710;52.520;13.352;2022-07-23T00:40:51;101341.50;;;23.53;46.71
31044;BME280;17710;52.520;13.352;2022-07-23T00:43:19;101343.03;;;23.11;47.43
31044;BME280;17710;52.520;13.352;2022-07-23T00:45:46;101340.22;;;23.24;47.50
31044;BME280;17710;52.520;13.352;2022-07-23T00:48:12;101352.88;;;23.45;47.22
31044;BME280;17710;52.520;13.352;2022-07-23T00:50:38;101337.19;;;23.28;47.39
31044;BME280;17710;52.520;13.352;2022-07-23T00:53:06;101330.47;;;23.67;46.72
31044;BME280;17710;52.520;13.352;2022-07-23T00:55:33;101353.59;;;23.92;46.11
31044;BME280;17710;52.520;13.352;2022-07-23T00:58:01;101350.41;;;23.98;45.58
31044;BME280;17710;52.520;13.352;2022-07-23T01:00:27;101355.09;;;23.85;45.90
31044;BME280;17710;52.520;13.352;2022-07-23T01:02:54;101352.00;;;23.90;45.71
31044;BME280;17710;52.520;13.352;2022-07-23T01:05:20;101359.03;;;23.81;45.71
31044;BME280;17710;52.520;13.352;2022-07-23T01:07:48;101356.47;;;23.68;46.38
31044;BME280;17710;52.520;13.352;2022-07-23T01:10:16;101355.56;;;23.34;47.27
31044;BME280;17710;52.520;13.352;2022-07-23T01:12:58;101351.53;;;23.29;47.40
31044;BME280;17710;52.520;13.352;2022-07-23T01:15:25;101348.81;;;23.18;47.70
31044;BME280;17710;52.520;13.352;2022-07-23T01:17:51;101340.25;;;23.35;47.25
31044;BME280;17710;52.520;13.352;2022-07-23T01:20:18;101334.94;;;23.00;48.34
31044;BME280;17710;52.520;13.352;2022-07-23T01:22:46;101337.94;;;23.41;47.59
31044;BME280;17710;52.520;13.352;2022-07-23T01:25:13;101332.78;;;23.27;47.55
31044;BME280;17710;52.520;13.352;2022-07-23T01:27:40;101331.69;;;23.41;47.59
31044;BME280;17710;52.520;13.352;2022-07-23T01:30:07;101325.44;;;23.29;47.68
31044;BME280;17710;52.520;13.352;2022-07-23T01:32:34;101319.31;;;23.61;47.03
31044;BME280;17710;52.520;13.352;2022-07-23T01:35:00;101326.56;;;23.49;47.39
31044;BME280;17710;52.520;13.352;2022-07-23T01:37:27;101330.97;;;23.61;46.83
31044;BME280;17710;52.520;13.352;2022-07-23T01:39:55;101325.19;;;23.66;47.04
31044;BME280;17710;52.520;13.352;2022-07-23T01:42:21;101322.22;;;23.80;46.81
31044;BME280;17710;52.520;13.352;2022-07-23T01:44:48;101320.91;;;23.74;46.50
31044;BME280;17710;52.520;13.352;2022-07-23T01:47:15;101328.84;;;23.87;46.50
31044;BME280;17710;52.520;13.352;2022-07-23T01:49:41;101326.22;;;23.97;46.38
31044;BME280;17710;52.520;13.352;2022-07-23T01:52:07;101325.38;;;23.96;46.26
31044;BME280;17710;52.520;13.352;2022-07-23T01:54:37;101322.63;;;23.75;46.52
31044;BME280;17710;52.520;13.352;2022-07-23T01:57:06;101317.63;;;23.49;47.09
31044;BME280;17710;52.520;13.352;2022-07-23T01:59:33;101315.38;;;23.42;47.62
31044;BME280;17710;52.520;13.352;2022-07-23T02:01:59;101324.69;;;23.16;48.14
31044;BME280;17710;52.520;13.352;2022-07-23T02:04:26;101322.94;;;23.04;48.32
31044;BME280;17710;52.520;13.352;2022-07-23T02:06:53;101314.13;;;23.24;48.34
31044;BME280;17710;52.520;13.352;2022-07-23T02:09:20;101311.31;;;23.26;48.05
31044;BME280;17710;52.520;13.352;2022-07-23T02:11:46;101307.75;;;23.25;48.03
31044;BME280;17710;52.520;13.352;2022-07-23T02:14:14;101304.81;;;23.39;47.80
31044;BME280;17710;52.520;13.352;2022-07-23T02:16:40;101310.13;;;23.52;47.36
31044;BME280;17710;52.520;13.352;2022-07-23T02:19:07;101314.63;;;23.74;46.89
31044;BME280;17710;52.520;13.352;2022-07-23T02:21:33;101306.81;;;23.60;46.98
31044;BME280;17710;52.520;13.352;2022-07-23T02:24:00;101307.28;;;23.65;46.83
31044;BME280;17710;52.520;13.352;2022-07-23T02:26:27;101313.16;;;23.70;46.60
31044;BME280;17710;52.520;13.352;2022-07-23T02:28:53;101307.91;;;23.35;47.71
31044;BME280;17710;52.520;13.352;2022-07-23T02:31:21;101310.75;;;23.56;46.98
31044;BME280;17710;52.520;13.352;2022-07-23T02:33:48;101311.97;;;23.52;47.09
31044;BME280;17710;52.520;13.352;2022-07-23T02:36:14;101319.06;;;23.75;46.35
31044;BME280;17710;52.520;13.352;2022-07-23T02:38:40;101310.00;;;23.54;46.83
31044;BME280;17710;52.520;13.352;2022-07-23T02:41:07;101309.25;;;23.29;47.39
31044;BME280;17710;52.520;13.352;2022-07-23T02:43:33;101313.63;;;23.08;48.17
31044;BME280;17710;52.520;13.352;2022-07-23T02:46:00;101314.66;;;23.29;47.74
31044;BME280;17710;52.520;13.352;2022-07-23T02:48:27;101323.22;;;23.34;47.32
31044;BME280;17710;52.520;13.352;2022-07-23T02:50:54;101327.78;;;23.56;47.24
31044;BME280;17710;52.520;13.352;2022-07-23T02:53:21;101323.00;;;23.60;47.34
31044;BME280;17710;52.520;13.352;2022-07-23T02:55:51;101329.09;;;23.73;46.43
31044;BME280;17710;52.520;13.352;2022-07-23T02:58:20;101324.81;;;23.70;46.20
31044;BME280;17710;52.520;13.352;2022-07-23T03:00:47;101319.19;;;23.62;46.51
31044;BME280;17710;52.520;13.352;2022-07-23T03:03:14;101322.22;;;23.47;46.68
31044;BME280;17710;52.520;13.352;2022-07-23T03:05:42;101316.00;;;23.57;46.87
31044;BME280;17710;52.520;13.352;2022-07-23T03:08:08;101315.50;;;23.52;46.50
31044;BME280;17710;52.520;13.352;2022-07-23T03:10:35;101319.53;;;23.80;46.02
31044;BME280;17710;52.520;13.352;2022-07-23T03:13:01;101310.06;;;23.86;45.90
31044;BME280;17710;52.520;13.352;2022-07-23T03:15:28;101319.75;;;23.77;45.92
31044;BME280;17710;52.520;13.352;2022-07-23T03:17:54;101329.09;;;23.73;45.68
31044;BME280;17710;52.520;13.352;2022-07-23T03:20:21;101328.88;;;23.76;45.56
31044;BME280;17710;52.520;13.352;2022-07-23T03:22:48;101317.59;;;23.60;45.70
31044;BME280;17710;52.520;13.352;2022-07-23T03:25:15;101325.56;;;23.50;45.64
31044;BME280;17710;52.520;13.352;2022-07-23T03:27:41;101332.28;;;23.33;45.45
31044;BME280;17710;52.520;13.352;2022-07-23T03:30:10;101313.28;;;23.35;45.59
31044;BME280;17710;52.520;13.352;2022-07-23T03:32:37;101325.53;;;23.39;45.54
31044;BME280;17710;52.520;13.352;2022-07-23T03:35:04;101336.59;;;23.47;45.19
31044;BME280;17710;52.520;13.352;2022-07-23T03:37:31;101343.59;;;23.50;44.93
31044;BME280;17710;52.520;13.352;2022-07-23T03:39:59;101342.69;;;23.38;44.47
31044;BME280;17710;52.520;13.352;2022-07-23T03:42:25;101354.09;;;23.30;44.67
31044;BME280;17710;52.520;13.352;2022-07-23T03:44:51;101351.28;;;23.21;44.45
31044;BME280;17710;52.520;13.352;2022-07-23T03:47:18;101351.66;;;23.16;44.50
31044;BME280;17710;52.520;13.352;2022-07-23T03:49:47;101355.31;;;23.26;44.13
31044;BME280;17710;52.520;13.352;2022-07-23T03:52:13;101361.56;;;23.38;43.52
31044;BME280;17710;52.520;13.352;2022-07-23T03:54:40;101370.53;;;23.38;42.99
31044;BME280;17710;52.520;13.352;2022-07-23T03:57:07;101377.38;;;23.31;42.72
31044;BME280;17710;52.520;13.352;2022-07-23T03:59:34;101375.44;;;23.44;42.66
31044;BME280;17710;52.520;13.352;2022-07-23T04:02:00;101365.63;;;23.32;42.36
31044;BME280;17710;52.520;13.352;2022-07-23T04:04:26;101356.53;;;23.44;42.69
31044;BME280;17710;52.520;13.352;2022-07-23T04:07:07;101366.59;;;23.20;42.04
31044;BME280;17710;52.520;13.352;2022-07-23T04:09:36;101353.84;;;23.22;41.59
31044;BME280;17710;52.520;13.352;2022-07-23T04:12:03;101339.84;;;23.06;42.04
31044;BME280;17710;52.520;13.352;2022-07-23T04:14:31;101337.44;;;23.36;41.91
31044;BME280;17710;52.520;13.352;2022-07-23T04:16:58;101340.13;;;23.14;41.57
31044;BME280;17710;52.520;13.352;2022-07-23T04:19:24;101329.84;;;23.53;41.50
31044;BME280;17710;52.520;13.352;2022-07-23T04:21:51;101335.94;;;23.43;41.12
31044;BME280;17710;52.520;13.352;2022-07-23T04:24:18;101351.44;;;23.64;40.31
31044;BME280;17710;52.520;13.352;2022-07-23T04:26:44;101348.50;;;23.56;41.13
31044;BME280;17710;52.520;13.352;2022-07-23T04:29:11;101331.91;;;23.71;41.03
31044;BME280;17710;52.520;13.352;2022-07-23T04:31:39;101308.50;;;23.38;40.87
31044;BME280;17710;52.520;13.352;2022-07-23T04:34:05;101314.53;;;23.53;42.53
31044;BME280;17710;52.520;13.352;2022-07-23T04:36:32;101316.25;;;23.43;45.11
31044;BME280;17710;52.520;13.352;2022-07-23T04:38:58;101352.78;;;23.47;45.50
31044;BME280;17710;52.520;13.352;2022-07-23T04:41:25;101363.34;;;23.04;49.02
31044;BME280;17710;52.520;13.352;2022-07-23T04:43:51;101369.75;;;23.14;49.48
31044;BME280;17710;52.520;13.352;2022-07-23T04:46:18;101380.28;;;23.17;48.08
31044;BME280;17710;52.520;13.352;2022-07-23T04:48:45;101372.25;;;23.28;47.63
31044;BME280;17710;52.520;13.352;2022-07-23T04:51:12;101368.53;;;23.07;48.16
31044;BME280;17710;52.520;13.352;2022-07-23T04:53:38;101383.38;;;23.24;48.87
31044;BME280;17710;52.520;13.352;2022-07-23T04:56:05;101387.97;;;22.99;50.40
31044;BME280;17710;52.520;13.352;2022-07-23T04:58:32;101391.03;;;22.95;49.43
31044;BME280;17710;52.520;13.352;2022-07-23T05:00:58;101379.53;;;23.04;48.97
31044;BME280;17710;52.520;13.352;2022-07-23T05:03:24;101381.22;;;22.94;49.80
31044;BME280;17710;52.520;13.352;2022-07-23T05:05:52;101370.66;;;22.80;49.95
31044;BME280;17710;52.520;13.352;2022-07-23T05:08:19;101357.94;;;22.93;49.78
31044;BME280;17710;52.520;13.352;2022-07-23T05:10:45;101350.72;;;22.93;50.29
31044;BME280;17710;52.520;13.352;2022-07-23T05:13:11;101359.09;;;23.01;50.37
31044;BME280;17710;52.520;13.352;2022-07-23T05:15:40;101356.78;;;23.08;49.86
31044;BME280;17710;52.520;13.352;2022-07-23T05:18:06;101361.13;;;22.98;49.63
31044;BME280;17710;52.520;13.352;2022-07-23T05:20:32;101356.00;;;22.95;49.72
31044;BME280;17710;52.520;13.352;2022-07-23T05:23:00;101356.38;;;22.90;50.03
31044;BME280;17710;52.520;13.352;2022-07-23T05:25:27;101357.84;;;22.94;50.10
31044;BME280;17710;52.520;13.352;2022-07-23T05:27:53;101357.53;;;23.10;49.56
31044;BME280;17710;52.520;13.352;2022-07-23T05:30:19;101348.47;;;23.22;49.45
31044;BME280;17710;52.520;13.352;2022-07-23T05:32:46;101346.81;;;22.97;50.19
31044;BME280;17710;52.520;13.352;2022-07-23T05:35:12;101348.69;;;23.08;49.86
31044;BME280;17710;52.520;13.352;2022-07-23T05:37:39;101368.78;;;23.15;49.74
31044;BME280;17710;52.520;13.352;2022-07-23T05:40:09;101355.63;;;22.88;50.16
31044;BME280;17710;52.520;13.352;2022-07-23T05:42:36;101374.47;;;22.88;50.40
31044;BME280;17710;52.520;13.352;2022-07-23T05:45:03;101362.00;;;22.98;50.00
31044;BME280;17710;52.520;13.352;2022-07-23T05:47:39;101371.69;;;23.01;50.00
31044;BME280;17710;52.520;13.352;2022-07-23T05:50:06;101370.94;;;22.99;50.16
31044;BME280;17710;52.520;13.352;2022-07-23T05:52:33;101375.94;;;22.81;51.62
31044;BME280;17710;52.520;13.352;2022-07-23T05:54:59;101392.75;;;22.72;53.18
31044;BME280;17710;52.520;13.352;2022-07-23T05:57:27;101391.47;;;22.30;53.31
31044;BME280;17710;52.520;13.352;2022-07-23T05:59:53;101390.78;;;22.39;54.02
31044;BME280;17710;52.520;13.352;2022-07-23T06:02:19;101403.72;;;22.34;54.79
31044;BME280;17710;52.520;13.352;2022-07-23T06:04:46;101408.81;;;22.26;55.36
31044;BME280;17710;52.520;13.352;2022-07-23T06:07:12;101399.22;;;21.98;55.52
31044;BME280;17710;52.520;13.352;2022-07-23T06:09:38;101381.66;;;22.29;54.65
31044;BME280;17710;52.520;13.352;2022-07-23T06:12:06;101371.63;;;22.55;53.02
31044;BME280;17710;52.520;13.352;2022-07-23T06:14:34;101355.59;;;22.77;52.27
31044;BME280;17710;52.520;13.352;2022-07-23T06:17:00;101349.09;;;22.80;53.18
31044;BME280;17710;52.520;13.352;2022-07-23T06:19:27;101354.09;;;22.73;53.23
31044;BME280;17710;52.520;13.352;2022-07-23T06:21:53;101352.59;;;22.69;54.22
31044;BME280;17710;52.520;13.352;2022-07-23T06:24:20;101354.41;;;22.92;53.30
31044;BME280;17710;52.520;13.352;2022-07-23T06:26:46;101374.97;;;22.82;52.84
31044;BME280;17710;52.520;13.352;2022-07-23T06:29:13;101372.25;;;22.58;54.61
31044;BME280;17710;52.520;13.352;2022-07-23T06:31:40;101375.66;;;22.73;54.35
31044;BME280;17710;52.520;13.352;2022-07-23T06:34:07;101369.84;;;22.66;55.42
31044;BME280;17710;52.520;13.352;2022-07-23T06:36:33;101362.25;;;22.72;53.82
31044;BME280;17710;52.520;13.352;2022-07-23T06:38:59;101345.59;;;22.90;53.68
31044;BME280;17710;52.520;13.352;2022-07-23T06:41:29;101344.47;;;22.93;53.83
31044;BME280;17710;52.520;13.352;2022-07-23T06:43:55;101338.00;;;22.95;53.13
31044;BME280;17710;52.520;13.352;2022-07-23T06:46:22;101346.81;;;22.97;52.41
31044;BME280;17710;52.520;13.352;2022-07-23T06:48:49;101337.63;;;23.11;51.30
31044;BME280;17710;52.520;13.352;2022-07-23T06:51:16;101327.13;;;23.19;51.70
31044;BME280;17710;52.520;13.352;2022-07-23T06:53:42;101329.09;;;23.28;51.88
31044;BME280;17710;52.520;13.352;2022-07-23T06:56:09;101330.34;;;23.35;50.78
31044;BME280;17710;52.520;13.352;2022-07-23T06:58:35;101332.78;;;23.27;51.19
31044;BME280;17710;52.520;13.352;2022-07-23T07:01:02;101336.94;;;23.20;51.49
31044;BME280;17710;52.520;13.352;2022-07-23T07:03:28;101344.78;;;23.34;51.19
31044;BME280;17710;52.520;13.352;2022-07-23T07:05:56;101337.31;;;23.16;51.87
31044;BME280;17710;52.520;13.352;2022-07-23T07:08:22;101343.44;;;23.29;51.67
31044;BME280;17710;52.520;13.352;2022-07-23T07:10:49;101350.72;;;22.93;54.40
31044;BME280;17710;52.520;13.352;2022-07-23T07:13:15;101376.50;;;22.74;54.44
31044;BME280;17710;52.520;13.352;2022-07-23T07:15:42;101379.84;;;22.77;55.49
31044;BME280;17710;52.520;13.352;2022-07-23T07:18:08;101381.94;;;22.85;55.34
31044;BME280;17710;52.520;13.352;2022-07-23T07:20:35;101384.50;;;22.75;54.84
31044;BME280;17710;52.520;13.352;2022-07-23T07:23:02;101386.06;;;22.78;54.86
31044;BME280;17710;52.520;13.352;2022-07-23T07:25:29;101394.09;;;22.90;54.56
31044;BME280;17710;52.520;13.352;2022-07-23T07:27:55;101406.25;;;22.96;54.77
31044;BME280;17710;52.520;13.352;2022-07-23T07:30:22;101387.28;;;23.09;53.18
31044;BME280;17710;52.520;13.352;2022-07-23T07:32:49;101392.78;;;23.18;53.89
31044;BME280;17710;52.520;13.352;2022-07-23T07:35:15;101380.34;;;23.39;52.30
31044;BME280;17710;52.520;13.352;2022-07-23T07:37:42;101382.34;;;23.82;51.12
31044;BME280;17710;52.520;13.352;2022-07-23T07:40:10;101378.22;;;24.10;51.43
31044;BME280;17710;52.520;13.352;2022-07-23T07:42:44;101382.31;;;23.93;49.94
31044;BME280;17710;52.520;13.352;2022-07-23T07:45:10;101383.91;;;23.84;51.85
31044;BME280;17710;52.520;13.352;2022-07-23T07:47:37;101377.53;;;23.86;50.83
31044;BME280;17710;52.520;13.352;2022-07-23T07:50:04;101370.78;;;24.02;50.24
31044;BME280;17710;52.520;13.352;2022-07-23T07:52:30;101364.59;;;24.11;50.79
31044;BME280;17710;52.520;13.352;2022-07-23T07:54:57;101353.41;;;24.16;50.50
31044;BME280;17710;52.520;13.352;2022-07-23T07:57:24;101347.88;;;24.29;50.26
31044;BME280;17710;52.520;13.352;2022-07-23T07:59:51;101353.41;;;24.16;49.80
31044;BME280;17710;52.520;13.352;2022-07-23T08:02:18;101343.03;;;24.00;50.21
31044;BME280;17710;52.520;13.352;2022-07-23T08:04:44;101347.44;;;24.12;50.18
31044;BME280;17710;52.520;13.352;2022-07-23T08:07:10;101359.38;;;24.42;50.24
31044;BME280;17710;52.520;13.352;2022-07-23T08:09:37;101363.13;;;24.93;48.00
31044;BME280;17710;52.520;13.352;2022-07-23T08:12:04;101348.16;;;24.26;47.94
31044;BME280;17710;52.520;13.352;2022-07-23T08:14:31;101354.50;;;24.36;48.52
31044;BME280;17710;52.520;13.352;2022-07-23T08:16:58;101362.81;;;24.44;47.00
31044;BME280;17710;52.520;13.352;2022-07-23T08:19:24;101351.19;;;23.89;48.17
31044;BME280;17710;52.520;13.352;2022-07-23T08:21:51;101346.19;;;24.28;48.36
31044;BME280;17710;52.520;13.352;2022-07-23T08:24:17;101354.69;;;24.76;47.42
31044;BME280;17710;52.520;13.352;2022-07-23T08:26:43;101353.38;;;25.32;45.82
31044;BME280;17710;52.520;13.352;2022-07-23T08:29:10;101354.44;;;25.71;44.15
31044;BME280;17710;52.520;13.352;2022-07-23T08:31:37;101357.88;;;25.83;43.42
31044;BME280;17710;52.520;13.352;2022-07-23T08:34:05;101350.63;;;26.43;43.27
31044;BME280;17710;52.520;13.352;2022-07-23T08:36:31;101347.19;;;26.31;42.85
31044;BME280;17710;52.520;13.352;2022-07-23T08:38:58;101354.75;;;25.88;43.02
31044;BME280;17710;52.520;13.352;2022-07-23T08:41:24;101350.53;;;26.14;42.93
31044;BME280;17710;52.520;13.352;2022-07-23T08:43:51;101361.88;;;26.38;42.33
31044;BME280;17710;52.520;13.352;2022-07-23T08:46:18;101362.19;;;26.64;40.78
31044;BME280;17710;52.520;13.352;2022-07-23T08:48:47;101364.16;;;25.93;41.38
31044;BME280;17710;52.520;13.352;2022-07-23T08:51:14;101360.09;;;26.08;41.62
31044;BME280;17710;52.520;13.352;2022-07-23T08:53:41;101356.00;;;25.44;41.71
31044;BME280;17710;52.520;13.352;2022-07-23T08:56:08;101357.41;;;25.68;41.30
31044;BME280;17710;52.520;13.352;2022-07-23T08:58:35;101347.25;;;25.61;41.80
31044;BME280;17710;52.520;13.352;2022-07-23T09:01:02;101343.34;;;25.54;41.79
31044;BME280;17710;52.520;13.352;2022-07-23T09:03:31;101347.13;;;25.62;42.15
31044;BME280;17710;52.520;13.352;2022-07-23T09:06:00;101355.22;;;25.93;42.53
31044;BME280;17710;52.520;13.352;2022-07-23T09:08:36;101356.34;;;26.00;41.51
31044;BME280;17710;52.520;13.352;2022-07-23T09:11:03;101359.00;;;25.80;41.73
31044;BME280;17710;52.520;13.352;2022-07-23T09:13:33;101367.97;;;25.71;41.80
31044;BME280;17710;52.520;13.352;2022-07-23T09:16:02;101365.09;;;25.63;43.00
31044;BME280;17710;52.520;13.352;2022-07-23T09:18:35;101364.41;;;25.80;42.38
31044;BME280;17710;52.520;13.352;2022-07-23T09:21:19;101361.22;;;26.06;40.72
31044;BME280;17710;52.520;13.352;2022-07-23T09:23:48;101366.53;;;26.17;40.82
31044;BME280;17710;52.520;13.352;2022-07-23T09:26:20;101368.22;;;25.68;41.75
31044;BME280;17710;52.520;13.352;2022-07-23T09:28:51;101376.22;;;25.39;42.04
31044;BME280;17710;52.520;13.352;2022-07-23T09:31:18;101376.59;;;25.35;41.32
31044;BME280;17710;52.520;13.352;2022-07-23T09:33:44;101379.25;;;25.56;41.75
31044;BME280;17710;52.520;13.352;2022-07-23T09:36:11;101377.50;;;25.45;41.47
31044;BME280;17710;52.520;13.352;2022-07-23T09:38:48;101377.38;;;25.77;42.47
31044;BME280;17710;52.520;13.352;2022-07-23T09:41:17;101388.69;;;26.41;41.55
31044;BME280;17710;52.520;13.352;2022-07-23T09:43:44;101381.38;;;26.32;41.17
31044;BME280;17710;52.520;13.352;2022-07-23T09:46:17;101383.41;;;25.90;41.96
31044;BME280;17710;52.520;13.352;2022-07-23T09:48:44;101388.78;;;25.80;41.78
31044;BME280;17710;52.520;13.352;2022-07-23T09:51:10;101382.72;;;25.98;41.15
31044;BME280;17710;52.520;13.352;2022-07-23T09:53:37;101367.59;;;26.45;39.86
31044;BME280;17710;52.520;13.352;2022-07-23T09:56:06;101380.84;;;26.38;39.07
31044;BME280;17710;52.520;13.352;2022-07-23T09:58:35;101386.91;;;26.11;39.24
31044;BME280;17710;52.520;13.352;2022-07-23T10:01:09;101387.03;;;25.70;39.87
31044;BME280;17710;52.520;13.352;2022-07-23T10:03:36;101395.72;;;26.04;39.38
31044;BME280;17710;52.520;13.352;2022-07-23T10:06:03;101406.63;;;26.33;39.64
31044;BME280;17710;52.520;13.352;2022-07-23T10:08:32;101411.16;;;25.83;39.73
31044;BME280;17710;52.520;13.352;2022-07-23T10:11:00;101405.06;;;26.30;39.49
31044;BME280;17710;52.520;13.352;2022-07-23T10:13:29;101403.38;;;26.87;38.86
31044;BME280;17710;52.520;13.352;2022-07-23T10:16:13;101404.25;;;26.49;39.28
31044;BME280;17710;52.520;13.352;2022-07-23T10:18:40;101403.97;;;26.62;39.38
31044;BME280;17710;52.520;13.352;2022-07-23T10:21:08;101406.28;;;26.95;38.34
31044;BME280;17710;52.520;13.352;2022-07-23T10:23:40;101399.28;;;27.02;38.86
31044;BME280;17710;52.520;13.352;2022-07-23T10:26:12;101389.13;;;26.66;38.75
31044;BME280;17710;52.520;13.352;2022-07-23T10:29:01;101395.53;;;26.55;39.48
31044;BME280;17710;52.520;13.352;2022-07-23T10:31:37;101406.34;;;26.45;39.14
31044;BME280;17710;52.520;13.352;2022-07-23T10:34:12;101397.97;;;26.58;39.56
31044;BME280;17710;52.520;13.352;2022-07-23T10:36:46;101404.38;;;27.05;38.45
31044;BME280;17710;52.520;13.352;2022-07-23T10:39:18;101402.84;;;26.64;38.44
31044;BME280;17710;52.520;13.352;2022-07-23T10:41:45;101407.09;;;27.15;37.74
31044;BME280;17710;52.520;13.352;2022-07-23T10:44:15;101406.91;;;27.35;37.68
31044;BME280;17710;52.520;13.352;2022-07-23T10:46:56;101409.81;;;27.15;37.38
31044;BME280;17710;52.520;13.352;2022-07-23T10:49:30;101409.41;;;27.00;37.46
31044;BME280;17710;52.520;13.352;2022-07-23T10:52:17;101414.56;;;27.03;37.14
31044;BME280;17710;52.520;13.352;2022-07-23T10:54:45;101407.59;;;27.57;36.92
31044;BME280;17710;52.520;13.352;2022-07-23T10:57:13;101401.44;;;27.45;35.97
31044;BME280;17710;52.520;13.352;2022-07-23T11:02:59;101402.38;;;26.88;36.46
31044;BME280;17710;52.520;13.352;2022-07-23T11:05:39;101408.13;;;27.04;36.93
31044;BME280;17710;52.520;13.352;2022-07-23T11:08:17;101401.00;;;27.03;36.77
31044;BME280;17710;52.520;13.352;2022-07-23T11:10:47;101394.09;;;26.80;37.03
31044;BME280;17710;52.520;13.352;2022-07-23T11:13:45;101396.94;;;26.30;38.39
31044;BME280;17710;52.520;13.352;2022-07-23T11:16:26;101400.13;;;26.45;37.95
31044;BME280;17710;52.520;13.352;2022-07-23T11:19:12;101405.81;;;26.51;37.94
31044;BME280;17710;52.520;13.352;2022-07-23T11:21:43;101393.41;;;25.99;38.82
31044;BME280;17710;52.520;13.352;2022-07-23T11:24:11;101378.84;;;26.50;38.15
31044;BME280;17710;52.520;13.352;2022-07-23T11:26:50;101383.22;;;27.28;36.84
31044;BME280;17710;52.520;13.352;2022-07-23T11:29:43;101396.88;;;27.46;35.74
31044;BME280;17710;52.520;13.352;2022-07-23T11:32:27;101391.88;;;27.60;35.27
31044;BME280;17710;52.520;13.352;2022-07-23T11:34:55;101390.13;;;27.69;34.91
31044;BME280;17710;52.520;13.352;2022-07-23T11:37:40;101388.91;;;28.08;34.96
31044;BME280;17710;52.520;13.352;2022-07-23T11:40:09;101387.44;;;28.59;34.12
31044;BME280;17710;52.520;13.352;2022-07-23T11:42:39;101386.50;;;28.50;33.69
31044;BME280;17710;52.520;13.352;2022-07-23T11:45:07;101384.13;;;27.93;34.76
31044;BME280;17710;52.520;13.352;2022-07-23T11:47:34;101387.47;;;28.14;34.41
31044;BME280;17710;52.520;13.352;2022-07-23T11:50:04;101380.97;;;27.97;35.50
31044;BME280;17710;52.520;13.352;2022-07-23T11:52:31;101385.25;;;28.63;35.06
31044;BME280;17710;52.520;13.352;2022-07-23T11:55:00;101392.25;;;28.65;33.89
31044;BME280;17710;52.520;13.352;2022-07-23T11:57:28;101382.72;;;28.79;33.78
31044;BME280;17710;52.520;13.352;2022-07-23T11:59:57;101380.94;;;28.87;33.60
31044;BME280;17710;52.520;13.352;2022-07-23T12:02:24;101377.81;;;28.65;32.98
31044;BME280;17710;52.520;13.352;2022-07-23T12:04:52;101371.13;;;28.77;33.41
31044;BME280;17710;52.520;13.352;2022-07-23T12:07:29;101376.16;;;29.33;32.78
31044;BME280;17710;52.520;13.352;2022-07-23T12:09:57;101374.75;;;29.29;32.81
31044;BME280;17710;52.520;13.352;2022-07-23T12:12:25;101376.44;;;29.48;32.31
31044;BME280;17710;52.520;13.352;2022-07-23T12:14:56;101376.38;;;29.73;32.50
31044;BME280;17710;52.520;13.352;2022-07-23T12:17:28;101369.13;;;29.48;32.90
31044;BME280;17710;52.520;13.352;2022-07-23T12:19:56;101368.25;;;29.48;32.49
31044;BME280;17710;52.520;13.352;2022-07-23T12:22:25;101380.50;;;29.78;32.26
31044;BME280;17710;52.520;13.352;2022-07-23T12:24:53;101376.84;;;29.95;31.04
31044;BME280;17710;52.520;13.352;2022-07-23T12:27:20;101373.00;;;29.71;31.75
31044;BME280;17710;52.520;13.352;2022-07-23T12:29:47;101367.84;;;30.02;31.46
31044;BME280;17710;52.520;13.352;2022-07-23T12:32:21;101378.34;;;30.31;30.89
31044;BME280;17710;52.520;13.352;2022-07-23T12:34:49;101373.97;;;30.55;30.07
31044;BME280;17710;52.520;13.352;2022-07-23T12:37:31;101379.53;;;30.37;30.09
31044;BME280;17710;52.520;13.352;2022-07-23T12:39:58;101370.66;;;29.85;30.99
31044;BME280;17710;52.520;13.352;2022-07-23T12:42:24;101374.72;;;29.81;31.01
31044;BME280;17710;52.520;13.352;2022-07-23T12:45:09;101365.69;;;29.72;30.62
31044;BME280;17710;52.520;13.352;2022-07-23T12:47:58;101371.78;;;29.74;31.15
31044;BME280;17710;52.520;13.352;2022-07-23T12:50:40;101375.03;;;30.03;30.96